createdAt,value
2023-05-21T00:01:49.905Z,10.07
2023-05-21T00:04:18.207Z,11.43
2023-05-21T00:06:45.935Z,11.85
2023-05-21T00:09:14.033Z,12.02
2023-05-21T00:11:41.731Z,11.68
2023-05-21T00:14:09.815Z,11.07
2023-05-21T00:16:38.889Z,11.40
2023-05-21T00:19:07.316Z,11.57
2023-05-21T00:21:35.043Z,11.68
2023-05-21T00:24:03.129Z,11.52
2023-05-21T00:26:30.856Z,11.73
2023-05-21T00:28:59.362Z,11.70
2023-05-21T00:31:27.036Z,11.13
2023-05-21T00:33:56.562Z,11.45
2023-05-21T00:36:25.131Z,11.23
2023-05-21T00:38:53.630Z,11.43
2023-05-21T00:41:22.916Z,12.15
2023-05-21T00:43:51.013Z,10.98
2023-05-21T00:46:21.304Z,12.10
2023-05-21T00:48:51.574Z,11.60
2023-05-21T00:51:21.875Z,11.82
2023-05-21T00:53:52.893Z,11.43
2023-05-21T00:56:21.826Z,10.80
2023-05-21T00:58:51.781Z,11.38
2023-05-21T01:01:20.050Z,11.57
2023-05-21T01:03:48.745Z,11.68
2023-05-21T01:06:17.508Z,12.00
2023-05-21T01:08:46.674Z,13.18
2023-05-21T01:11:15.670Z,12.60
2023-05-21T01:13:44.490Z,11.80
2023-05-21T01:16:14.051Z,12.65
2023-05-21T01:18:47.092Z,12.73
2023-05-21T01:21:17.472Z,13.25
2023-05-21T01:23:47.150Z,12.20
2023-05-21T01:26:16.178Z,12.10
2023-05-21T01:28:43.911Z,13.63
2023-05-21T01:31:26.396Z,13.18
2023-05-21T01:33:59.866Z,13.05
2023-05-21T01:36:34.853Z,13.02
2023-05-21T01:39:10.575Z,13.55
2023-05-21T01:41:43.363Z,14.18
2023-05-21T01:44:13.327Z,13.32
2023-05-21T01:46:41.513Z,13.00
2023-05-21T01:49:10.306Z,14.52
2023-05-21T01:51:38.319Z,13.15
2023-05-21T01:54:07.625Z,13.05
2023-05-21T01:56:37.070Z,13.10
2023-05-21T01:59:05.272Z,13.23
2023-05-21T02:01:33.425Z,16.33
2023-05-21T02:04:02.170Z,14.68
2023-05-21T02:06:31.730Z,13.80
2023-05-21T02:08:59.911Z,13.55
2023-05-21T02:11:29.123Z,14.30
2023-05-21T02:13:58.295Z,14.25
2023-05-21T02:16:26.514Z,15.15
2023-05-21T02:18:57.456Z,14.50
2023-05-21T02:21:26.364Z,15.23
2023-05-21T02:23:54.597Z,14.82
2023-05-21T02:26:23.012Z,15.00
2023-05-21T02:28:53.115Z,14.43
2023-05-21T02:31:20.862Z,15.43
2023-05-21T02:33:48.980Z,15.98
2023-05-21T02:36:19.159Z,16.08
2023-05-21T02:38:48.095Z,16.80
2023-05-21T02:41:15.939Z,15.32
2023-05-21T02:43:44.247Z,15.27
2023-05-21T02:46:13.450Z,16.10
2023-05-21T02:48:41.518Z,15.48
2023-05-21T02:51:09.189Z,17.05
2023-05-21T02:53:37.373Z,17.65
2023-05-21T02:56:05.734Z,16.40
2023-05-21T02:58:33.801Z,16.77
2023-05-21T03:01:01.503Z,16.08
2023-05-21T03:03:32.603Z,17.77
2023-05-21T03:06:00.330Z,17.75
2023-05-21T03:08:28.555Z,15.27
2023-05-21T03:10:56.273Z,17.15
2023-05-21T03:13:23.999Z,17.17
2023-05-21T03:15:56.540Z,17.52
2023-05-21T03:18:24.352Z,17.02
2023-05-21T03:20:53.797Z,18.05
2023-05-21T03:23:21.512Z,18.13
2023-05-21T03:25:49.693Z,17.77
2023-05-21T03:28:17.666Z,16.45
2023-05-21T03:30:46.921Z,16.83
2023-05-21T03:33:15.485Z,16.90
2023-05-21T03:35:43.532Z,18.20
2023-05-21T03:38:12.679Z,18.48
2023-05-21T03:40:40.484Z,18.08
2023-05-21T03:43:08.803Z,18.35
2023-05-21T03:45:37.188Z,17.17
2023-05-21T03:48:05.964Z,17.85
2023-05-21T03:50:34.072Z,18.70
2023-05-21T03:53:02.005Z,19.33
2023-05-21T03:55:31.436Z,18.73
2023-05-21T03:57:59.114Z,19.20
2023-05-21T04:00:26.799Z,18.40
2023-05-21T04:02:54.539Z,20.27
2023-05-21T04:05:22.760Z,18.70
2023-05-21T04:07:50.424Z,19.17
2023-05-21T04:10:18.194Z,20.10
2023-05-21T04:12:49.469Z,19.45
2023-05-21T04:15:18.534Z,18.52
2023-05-21T04:17:47.195Z,19.20
2023-05-21T04:20:16.899Z,21.20
2023-05-21T04:22:45.425Z,19.83
2023-05-21T04:25:13.725Z,20.50
2023-05-21T04:27:42.645Z,19.83
2023-05-21T04:30:12.798Z,18.42
2023-05-21T04:32:40.547Z,17.95
2023-05-21T04:35:10.491Z,19.33
2023-05-21T04:37:42.042Z,18.92
2023-05-21T04:40:11.249Z,19.00
2023-05-21T04:42:39.041Z,20.45
2023-05-21T04:45:07.589Z,19.75
2023-05-21T04:47:37.696Z,19.20
2023-05-21T04:50:06.540Z,18.83
2023-05-21T04:52:34.701Z,20.85
2023-05-21T04:55:02.891Z,18.75
2023-05-21T04:57:30.842Z,18.13
2023-05-21T04:59:58.798Z,19.58
2023-05-21T05:02:26.924Z,18.63
2023-05-21T05:04:56.476Z,19.35
2023-05-21T05:07:24.149Z,18.30
2023-05-21T05:09:52.343Z,19.65
2023-05-21T05:12:20.005Z,19.60
2023-05-21T05:14:48.116Z,19.63
2023-05-21T05:17:15.834Z,19.00
2023-05-21T05:19:43.993Z,19.35
2023-05-21T05:22:13.701Z,20.13
2023-05-21T05:24:42.043Z,20.17
2023-05-21T05:27:09.718Z,19.95
2023-05-21T05:29:37.861Z,18.10
2023-05-21T05:32:06.233Z,19.83
2023-05-21T05:34:34.389Z,18.25
2023-05-21T05:37:02.875Z,18.58
2023-05-21T05:39:32.191Z,17.75
2023-05-21T05:41:59.953Z,19.30
2023-05-21T05:44:27.823Z,17.55
2023-05-21T05:46:55.975Z,17.70
2023-05-21T05:49:24.016Z,18.40
2023-05-21T05:51:51.702Z,18.50
2023-05-21T05:54:19.755Z,17.25
2023-05-21T05:56:48.842Z,19.00
2023-05-21T05:59:17.169Z,19.13
2023-05-21T06:01:44.837Z,17.42
2023-05-21T06:04:12.496Z,18.75
2023-05-21T06:06:40.478Z,17.75
2023-05-21T06:09:08.177Z,17.63
2023-05-21T06:11:36.543Z,16.42
2023-05-21T06:14:05.577Z,17.25
2023-05-21T06:16:34.289Z,16.20
2023-05-21T06:19:02.189Z,15.60
2023-05-21T06:21:30.341Z,15.52
2023-05-21T06:23:58.057Z,15.93
2023-05-21T06:26:26.653Z,16.33
2023-05-21T06:28:54.291Z,15.50
2023-05-21T06:31:23.909Z,16.80
2023-05-21T06:33:51.714Z,16.03
2023-05-21T06:36:20.258Z,15.32
2023-05-21T06:38:47.918Z,16.10
2023-05-21T06:41:16.013Z,15.75
2023-05-21T06:43:43.678Z,14.68
2023-05-21T06:46:11.838Z,15.43
2023-05-21T06:48:40.972Z,14.88
2023-05-21T06:51:09.051Z,15.07
2023-05-21T06:53:36.863Z,13.93
2023-05-21T06:56:05.467Z,14.75
2023-05-21T06:58:33.164Z,14.50
2023-05-21T07:01:01.797Z,13.98
2023-05-21T07:03:29.707Z,14.35
2023-05-21T07:05:59.685Z,15.32
2023-05-21T07:08:27.355Z,15.10
2023-05-21T07:10:57.973Z,14.48
2023-05-21T07:13:25.765Z,14.73
2023-05-21T07:15:53.445Z,14.38
2023-05-21T07:18:21.597Z,14.93
2023-05-21T07:20:49.346Z,14.52
2023-05-21T07:23:19.230Z,14.30
2023-05-21T07:25:46.869Z,14.07
2023-05-21T07:28:15.018Z,14.27
2023-05-21T07:30:43.215Z,15.30
2023-05-21T07:33:12.496Z,14.05
2023-05-21T07:35:40.835Z,14.15
2023-05-21T07:38:09.030Z,13.43
2023-05-21T07:40:38.109Z,14.32
2023-05-21T07:43:06.245Z,14.00
2023-05-21T07:45:33.943Z,12.65
2023-05-21T07:48:01.726Z,13.05
2023-05-21T07:50:29.968Z,13.27
2023-05-21T07:52:57.767Z,13.73
2023-05-21T07:55:25.499Z,12.77
2023-05-21T07:57:54.970Z,13.27
2023-05-21T08:00:24.997Z,13.27
2023-05-21T08:02:53.231Z,18.05
2023-05-21T08:05:21.648Z,18.60
2023-05-21T08:07:49.658Z,12.30
2023-05-21T08:10:19.378Z,11.82
2023-05-21T08:12:47.759Z,10.95
2023-05-21T08:15:16.871Z,14.65
2023-05-21T08:17:44.557Z,14.57
2023-05-21T08:20:13.661Z,11.30
2023-05-21T08:22:41.334Z,10.75
2023-05-21T08:25:10.468Z,10.77
2023-05-21T08:27:38.145Z,10.85
2023-05-21T08:30:06.951Z,10.80
2023-05-21T08:32:36.418Z,10.18
2023-05-21T08:35:04.313Z,10.20
2023-05-21T08:37:32.670Z,9.93
2023-05-21T08:40:00.397Z,9.43
2023-05-21T08:42:37.315Z,14.27
2023-05-21T08:45:07.091Z,14.85
2023-05-21T08:47:38.210Z,10.20
2023-05-21T08:50:10.035Z,9.45
2023-05-21T08:52:37.907Z,9.75
2023-05-21T08:55:07.007Z,9.57
2023-05-21T08:57:35.145Z,9.75
2023-05-21T09:00:04.720Z,10.00
2023-05-21T09:02:38.942Z,8.97
2023-05-21T09:05:07.811Z,9.40
2023-05-21T09:07:43.904Z,8.75
2023-05-21T09:10:14.652Z,12.50
2023-05-21T09:12:43.337Z,15.55
2023-05-21T09:15:11.861Z,9.48
2023-05-21T09:17:41.328Z,11.93
2023-05-21T09:20:12.289Z,10.40
2023-05-21T09:22:44.391Z,8.30
2023-05-21T09:25:12.891Z,8.70
2023-05-21T09:27:41.131Z,7.82
2023-05-21T09:30:12.439Z,7.72
2023-05-21T09:32:42.331Z,8.02
2023-05-21T09:35:11.700Z,8.82
2023-05-21T09:37:40.397Z,8.10
2023-05-21T09:40:12.889Z,8.02
2023-05-21T09:42:40.949Z,7.90
2023-05-21T09:45:09.884Z,7.70
2023-05-21T09:47:44.870Z,7.50
2023-05-21T09:50:13.141Z,7.90
2023-05-21T09:52:42.277Z,7.75
2023-05-21T09:55:12.872Z,21.55
2023-05-21T10:00:20.005Z,8.32
2023-05-21T10:02:50.611Z,7.65
2023-05-21T10:05:18.712Z,7.80
2023-05-21T10:07:50.956Z,7.30
2023-05-21T10:10:21.521Z,7.43
2023-05-21T10:12:56.141Z,7.10
2023-05-21T10:15:26.121Z,7.78
2023-05-21T10:17:57.838Z,7.30
2023-05-21T10:20:25.817Z,6.90
2023-05-21T10:22:54.584Z,7.45
2023-05-21T10:25:25.040Z,6.45
2023-05-21T10:30:23.109Z,6.97
2023-05-21T10:32:51.250Z,6.90
2023-05-21T10:35:21.092Z,6.95
2023-05-21T10:37:50.294Z,6.88
2023-05-21T10:40:19.669Z,16.73
2023-05-21T10:43:11.168Z,12.18
2023-05-21T10:45:55.065Z,28.52
2023-05-21T10:48:41.966Z,7.68
2023-05-21T10:51:25.396Z,5.70
2023-05-21T10:54:33.223Z,5.63
2023-05-21T10:57:12.062Z,5.60
2023-05-21T10:59:43.315Z,5.80
2023-05-21T11:02:14.239Z,5.45
2023-05-21T11:04:44.240Z,5.70
2023-05-21T11:07:14.408Z,5.95
2023-05-21T11:09:42.236Z,6.30
2023-05-21T11:12:10.234Z,5.47
2023-05-21T11:14:40.282Z,5.72
2023-05-21T11:17:13.562Z,7.03
2023-05-21T11:19:43.121Z,7.20
2023-05-21T11:22:21.848Z,5.50
2023-05-21T11:24:51.550Z,5.47
2023-05-21T11:27:34.444Z,4.97
2023-05-21T11:30:05.978Z,4.85
2023-05-21T11:32:33.721Z,5.97
2023-05-21T11:35:02.717Z,5.35
2023-05-21T11:37:35.199Z,9.05
2023-05-21T11:40:25.711Z,15.95
2023-05-21T11:42:55.596Z,11.77
2023-05-21T11:45:24.659Z,5.50
2023-05-21T11:47:53.922Z,5.13
2023-05-21T11:50:22.145Z,5.25
2023-05-21T11:52:51.958Z,4.78
2023-05-21T11:55:23.457Z,4.90
2023-05-21T11:57:54.356Z,4.63
2023-05-21T12:00:22.518Z,4.70
2023-05-21T12:02:53.147Z,5.45
2023-05-21T12:05:22.673Z,5.55
2023-05-21T12:07:52.196Z,4.90
2023-05-21T12:10:24.172Z,4.77
2023-05-21T12:12:55.604Z,4.70
2023-05-21T12:15:26.342Z,4.90
2023-05-21T12:17:55.437Z,4.50
2023-05-21T12:20:23.806Z,4.78
2023-05-21T12:22:53.273Z,5.22
2023-05-21T12:25:21.722Z,4.43
2023-05-21T12:27:52.992Z,4.85
2023-05-21T12:30:21.861Z,5.07
2023-05-21T12:32:50.202Z,4.65
2023-05-21T12:35:25.349Z,4.50
2023-05-21T12:37:54.597Z,5.40
2023-05-21T12:40:22.569Z,4.70
2023-05-21T12:42:51.896Z,4.95
2023-05-21T12:45:22.034Z,4.78
2023-05-21T12:47:56.500Z,4.78
2023-05-21T12:50:24.610Z,5.43
2023-05-21T12:52:57.242Z,5.00
2023-05-21T12:55:26.172Z,4.57
2023-05-21T12:58:04.480Z,4.88
2023-05-21T13:00:33.989Z,4.75
2023-05-21T13:03:02.315Z,4.77
2023-05-21T13:05:30.091Z,4.93
2023-05-21T13:07:59.595Z,5.13
2023-05-21T13:10:27.265Z,5.23
2023-05-21T13:12:55.350Z,4.82
2023-05-21T13:15:23.044Z,4.95
2023-05-21T13:17:52.548Z,4.90
2023-05-21T13:20:23.725Z,4.93
2023-05-21T13:22:53.044Z,5.00
2023-05-21T13:25:24.448Z,4.70
2023-05-21T13:27:53.920Z,4.90
2023-05-21T13:30:22.842Z,4.40
2023-05-21T13:32:52.098Z,4.75
2023-05-21T13:35:20.370Z,5.07
2023-05-21T13:37:48.143Z,4.55
2023-05-21T13:40:17.374Z,9.82
2023-05-21T13:42:48.306Z,11.10
2023-05-21T13:45:18.342Z,14.57
2023-05-21T13:47:47.702Z,5.05
2023-05-21T13:50:15.694Z,4.68
2023-05-21T13:52:44.103Z,4.32
2023-05-21T13:55:11.902Z,4.28
2023-05-21T13:57:40.992Z,4.22
2023-05-21T14:00:13.999Z,4.57
2023-05-21T14:02:42.983Z,4.40
2023-05-21T14:05:12.124Z,4.50
2023-05-21T14:07:41.348Z,4.55
2023-05-21T14:10:10.008Z,4.32
2023-05-21T14:12:38.472Z,4.55
2023-05-21T14:15:08.002Z,4.20
2023-05-21T14:17:37.166Z,4.17
2023-05-21T14:20:05.889Z,4.50
2023-05-21T14:22:33.620Z,5.88
2023-05-21T14:25:01.776Z,9.48
2023-05-21T14:27:29.485Z,16.38
2023-05-21T14:29:57.616Z,9.90
2023-05-21T14:32:25.495Z,4.13
2023-05-21T14:34:54.586Z,4.38
2023-05-21T14:37:22.799Z,4.53
2023-05-21T14:39:50.496Z,4.28
2023-05-21T14:42:18.572Z,4.50
2023-05-21T14:44:46.313Z,3.92
2023-05-21T14:47:14.068Z,4.07
2023-05-21T14:49:41.855Z,3.58
2023-05-21T14:52:11.384Z,4.25
2023-05-21T14:54:39.039Z,4.60
2023-05-21T14:57:06.807Z,4.05
2023-05-21T14:59:35.045Z,4.40
2023-05-21T15:02:03.020Z,4.22
2023-05-21T15:04:31.412Z,4.18
2023-05-21T15:06:59.057Z,4.82
2023-05-21T15:09:28.399Z,4.13
2023-05-21T15:11:56.131Z,4.60
2023-05-21T15:14:24.080Z,4.05
2023-05-21T15:16:51.847Z,4.00
2023-05-21T15:19:19.990Z,3.80
2023-05-21T15:21:47.853Z,30.17
2023-05-21T15:24:15.984Z,6.20
2023-05-21T15:26:45.051Z,3.85
2023-05-21T15:29:14.055Z,4.20
2023-05-21T15:31:41.762Z,3.78
2023-05-21T15:34:09.858Z,4.28
2023-05-21T15:36:37.649Z,3.97
2023-05-21T15:39:06.066Z,3.42
2023-05-21T15:41:36.909Z,3.60
2023-05-21T15:44:06.251Z,3.95
2023-05-21T15:46:34.349Z,4.25
2023-05-21T15:49:02.155Z,4.07
2023-05-21T15:51:30.336Z,3.78
2023-05-21T15:53:58.026Z,3.83
2023-05-21T15:56:27.132Z,3.70
2023-05-21T15:58:56.183Z,4.05
2023-05-21T16:01:27.123Z,3.95
2023-05-21T16:03:55.016Z,3.95
2023-05-21T16:06:23.337Z,4.00
2023-05-21T16:08:51.064Z,3.92
2023-05-21T16:11:19.023Z,3.70
2023-05-21T16:13:46.712Z,4.00
2023-05-21T16:16:15.656Z,3.75
2023-05-21T16:18:44.855Z,3.97
2023-05-21T16:21:13.055Z,3.70
2023-05-21T16:23:40.750Z,3.75
2023-05-21T16:26:10.512Z,3.55
2023-05-21T16:28:38.702Z,3.78
2023-05-21T16:31:06.999Z,4.00
2023-05-21T16:33:34.819Z,3.92
2023-05-21T16:36:03.929Z,3.50
2023-05-21T16:38:32.104Z,3.45
2023-05-21T16:40:59.912Z,3.80
2023-05-21T16:43:27.956Z,3.47
2023-05-21T16:45:55.724Z,4.13
2023-05-21T16:48:24.494Z,3.65
2023-05-21T16:50:52.130Z,3.72
2023-05-21T16:53:21.207Z,3.63
2023-05-21T16:55:49.302Z,3.45
2023-05-21T16:58:17.437Z,3.42
2023-05-21T17:00:45.734Z,3.67
2023-05-21T17:03:14.003Z,3.70
2023-05-21T17:05:41.811Z,3.55
2023-05-21T17:08:10.568Z,3.67
2023-05-21T17:10:39.624Z,3.40
2023-05-21T17:13:20.581Z,3.63
2023-05-21T17:15:48.870Z,14.05
2023-05-21T17:18:16.975Z,9.40
2023-05-21T17:20:44.772Z,3.92
2023-05-21T17:23:12.942Z,3.90
2023-05-21T17:25:42.256Z,3.53
2023-05-21T17:28:12.301Z,3.45
2023-05-21T17:30:40.014Z,3.75
2023-05-21T17:33:08.222Z,3.53
2023-05-21T17:35:36.162Z,3.85
2023-05-21T17:38:04.340Z,3.80
2023-05-21T17:40:32.083Z,3.20
2023-05-21T17:43:01.685Z,3.30
2023-05-21T17:45:29.403Z,3.63
2023-05-21T17:47:59.877Z,3.85
2023-05-21T17:50:28.333Z,3.60
2023-05-21T17:52:56.317Z,3.58
2023-05-21T17:55:24.101Z,3.53
2023-05-21T17:57:52.312Z,3.55
2023-05-21T18:00:22.186Z,3.40
2023-05-21T18:02:50.095Z,6.03
2023-05-21T18:05:17.769Z,16.70
2023-05-21T18:07:45.602Z,5.30
2023-05-21T18:10:15.154Z,3.45
2023-05-21T18:12:44.660Z,3.73
2023-05-21T18:15:12.957Z,3.60
2023-05-21T18:17:42.468Z,3.20
2023-05-21T18:20:11.021Z,3.20
2023-05-21T18:22:38.777Z,3.33
2023-05-21T18:25:07.974Z,3.33
2023-05-21T18:27:35.852Z,3.40
2023-05-21T18:30:06.565Z,3.25
2023-05-21T18:32:34.639Z,3.47
2023-05-21T18:35:04.049Z,3.35
2023-05-21T18:37:32.313Z,3.15
2023-05-21T18:40:00.048Z,3.00
2023-05-21T18:42:28.593Z,3.42
2023-05-21T18:44:56.369Z,3.75
2023-05-21T18:47:24.199Z,3.35
2023-05-21T18:49:51.950Z,3.47
2023-05-21T18:52:21.327Z,3.60
2023-05-21T18:54:49.617Z,3.20
2023-05-21T18:57:17.331Z,3.20
2023-05-21T18:59:45.441Z,3.13
2023-05-21T19:02:13.476Z,3.70
2023-05-21T19:04:41.826Z,3.60
2023-05-21T19:07:09.503Z,3.60
2023-05-21T19:09:38.970Z,3.30
2023-05-21T19:12:07.627Z,3.30
2023-05-21T19:14:35.976Z,3.38
2023-05-21T19:17:03.665Z,3.55
2023-05-21T19:19:31.505Z,3.40
2023-05-21T19:21:59.250Z,3.78
2023-05-21T19:24:27.379Z,3.17
2023-05-21T19:26:56.460Z,3.38
2023-05-21T19:29:26.260Z,3.28
2023-05-21T19:31:56.644Z,3.35
2023-05-21T19:34:24.698Z,3.50
2023-05-21T19:36:53.992Z,6.57
2023-05-21T19:39:21.969Z,11.43
2023-05-21T19:41:49.735Z,6.45
2023-05-21T19:44:18.832Z,4.38
2023-05-21T19:46:46.840Z,3.63
2023-05-21T19:49:15.816Z,3.75
2023-05-21T19:51:43.971Z,4.05
2023-05-21T19:54:11.675Z,3.28
2023-05-21T19:56:39.857Z,3.58
2023-05-21T19:59:07.550Z,3.58
2023-05-21T20:01:39.759Z,3.50
2023-05-21T20:04:07.723Z,3.53
2023-05-21T20:06:35.863Z,4.22
2023-05-21T20:09:03.976Z,3.63
2023-05-21T20:11:32.752Z,4.10
2023-05-21T20:14:02.385Z,4.10
2023-05-21T20:16:30.505Z,4.20
2023-05-21T20:19:01.822Z,4.63
2023-05-21T20:21:31.508Z,4.05
2023-05-21T20:23:59.480Z,4.70
2023-05-21T20:26:27.278Z,4.10
2023-05-21T20:28:55.277Z,5.65
2023-05-21T20:31:23.019Z,4.78
2023-05-21T20:33:51.383Z,5.50
2023-05-21T20:36:21.459Z,4.70
2023-05-21T20:38:49.159Z,4.70
2023-05-21T20:41:17.249Z,4.63
2023-05-21T20:43:45.922Z,4.57
2023-05-21T20:46:14.073Z,4.25
2023-05-21T20:48:43.478Z,4.10
2023-05-21T20:51:11.704Z,4.47
2023-05-21T20:53:40.805Z,4.18
2023-05-21T20:56:11.836Z,4.20
2023-05-21T20:58:39.881Z,4.38
2023-05-21T21:01:10.913Z,4.65
2023-05-21T21:03:41.429Z,4.50
2023-05-21T21:06:10.165Z,4.28
2023-05-21T21:08:40.552Z,4.22
2023-05-21T21:11:11.216Z,4.32
2023-05-21T21:13:39.790Z,4.20
2023-05-21T21:16:08.374Z,4.32
2023-05-21T21:18:36.351Z,4.85
2023-05-21T21:21:04.139Z,5.65
2023-05-21T21:23:32.211Z,5.57
2023-05-21T21:25:59.855Z,4.90
2023-05-21T21:28:29.136Z,4.63
2023-05-21T21:30:56.886Z,4.47
2023-05-21T21:33:26.978Z,4.18
2023-05-21T21:35:54.760Z,3.97
2023-05-21T21:38:22.886Z,3.72
2023-05-21T21:40:50.699Z,4.20
2023-05-21T21:43:18.762Z,4.35
2023-05-21T21:45:47.828Z,4.18
2023-05-21T21:48:16.768Z,4.93
2023-05-21T21:50:44.534Z,3.90
2023-05-21T21:53:14.251Z,4.07
2023-05-21T21:55:41.928Z,3.67
2023-05-21T21:58:09.616Z,4.00
2023-05-21T22:00:37.893Z,4.35
2023-05-21T22:03:07.188Z,3.78
2023-05-21T22:05:35.604Z,3.80
2023-05-21T22:08:03.876Z,4.05
2023-05-21T22:10:34.391Z,3.50
2023-05-21T22:15:32.620Z,3.47
2023-05-21T22:18:02.244Z,3.92
2023-05-21T22:20:33.470Z,4.00
2023-05-21T22:23:01.156Z,3.50
2023-05-21T22:25:29.424Z,3.65
2023-05-21T22:27:57.163Z,4.30
2023-05-21T22:30:25.206Z,4.00
2023-05-21T22:32:52.948Z,3.50
2023-05-21T22:35:21.003Z,3.47
2023-05-21T22:37:50.056Z,3.50
2023-05-21T22:40:18.224Z,3.42
2023-05-21T22:42:46.135Z,3.53
2023-05-21T22:45:15.478Z,3.65
2023-05-21T22:47:43.370Z,3.50
2023-05-21T22:50:13.154Z,3.65
2023-05-21T22:52:40.935Z,3.35
2023-05-21T22:55:11.541Z,3.22
2023-05-21T22:57:39.657Z,3.50
2023-05-21T23:00:10.164Z,3.53
2023-05-21T23:05:06.642Z,3.75
2023-05-21T23:07:34.438Z,3.58
2023-05-21T23:10:02.113Z,3.47
2023-05-21T23:12:31.585Z,3.42
2023-05-21T23:14:59.281Z,3.20
2023-05-21T23:17:27.412Z,3.17
2023-05-21T23:19:56.159Z,3.13
2023-05-21T23:22:24.428Z,3.53
2023-05-21T23:24:53.935Z,3.10
2023-05-21T23:27:22.275Z,3.05
2023-05-21T23:29:51.395Z,3.53
2023-05-21T23:32:19.825Z,3.10
2023-05-21T23:34:48.219Z,2.55
2023-05-21T23:37:16.572Z,3.42
2023-05-21T23:39:47.945Z,3.10
2023-05-21T23:42:16.313Z,2.97
2023-05-21T23:44:44.023Z,2.90
2023-05-21T23:47:13.328Z,3.08
2023-05-21T23:49:41.022Z,3.40
2023-05-21T23:52:09.000Z,3.10
2023-05-21T23:54:36.768Z,3.33
2023-05-21T23:57:05.159Z,3.20
2023-05-21T23:59:32.880Z,3.08
